Time;durP1;ratioP1;P1;durP2;ratioP2;P2;SDS_P1;SDS_P2;PMS_P1;PMS_P2;Temp;Humidity;BMP_temperature;BMP_pressure;BME280_temperature;BME280_humidity;BME280_pressure;Samples;Min_cycle;Max_cycle;Signal;HPM_P1;HPM_P2
2022/12/27 00:01:30;;;;;;;74.65;8.45;;;;;;;;;;5031832;28;20033;-38
2022/12/27 00:03:57;;;;;;;73.28;8.73;;;;;;;;;;5031912;28;20056;-38
2022/12/27 00:06:25;;;;;;;72.70;8.82;;;;;;;;;;5031730;28;20056;-39
2022/12/27 00:08:52;;;;;;;65.93;8.18;;;;;;;;;;5035473;28;20033;-39
2022/12/27 00:11:21;;;;;;;61.83;8.60;;;;;;;;;;5021147;28;20366;-39
2022/12/27 00:13:48;;;;;;;71.57;7.90;;;;;;;;;;5042405;28;20100;-39
2022/12/27 00:16:17;;;;;;;76.90;8.50;;;;;;;;;;5023219;28;20058;-39
2022/12/27 00:18:45;;;;;;;60.92;8.98;;;;;;;;;;5009662;28;20105;-39
2022/12/27 00:21:13;;;;;;;63.03;8.10;;;;;;;;;;5009672;28;20088;-39
2022/12/27 00:23:43;;;;;;;71.38;8.25;;;;;;;;;;5010697;28;20457;-39
2022/12/27 00:26:17;;;;;;;64.32;8.77;;;;;;;;;;5015002;28;20040;-39
2022/12/27 00:28:44;;;;;;;72.03;8.80;;;;;;;;;;5014941;28;20034;-39
2022/12/27 00:31:12;;;;;;;68.97;8.68;;;;;;;;;;5014337;28;20038;-39
2022/12/27 00:33:39;;;;;;;69.22;8.43;;;;;;;;;;5014342;28;20030;-38
2022/12/27 00:36:07;;;;;;;69.40;8.68;;;;;;;;;;5014664;28;20129;-38
2022/12/27 00:38:34;;;;;;;76.78;8.93;;;;;;;;;;5019731;28;20112;-38
2022/12/27 00:41:02;;;;;;;55.65;7.68;;;;;;;;;;5034795;28;20048;-38
2022/12/27 00:43:28;;;;;;;57.75;7.32;;;;;;;;;;5035228;28;20032;-38
2022/12/27 00:45:56;;;;;;;56.10;7.93;;;;;;;;;;5035164;28;20053;-38
2022/12/27 00:48:23;;;;;;;61.70;7.10;;;;;;;;;;5035285;28;20033;-38
2022/12/27 00:50:51;;;;;;;41.83;7.25;;;;;;;;;;5034786;28;20030;-38
2022/12/27 00:53:18;;;;;;;58.60;6.78;;;;;;;;;;5035017;28;20049;-38
2022/12/27 00:55:45;;;;;;;60.22;6.95;;;;;;;;;;5035143;28;20033;-38
2022/12/27 00:58:12;;;;;;;59.58;6.35;;;;;;;;;;5034615;28;20037;-38
2022/12/27 01:00:39;;;;;;;50.45;6.75;;;;;;;;;;5034178;28;20037;-38
2022/12/27 01:03:06;;;;;;;45.05;6.20;;;;;;;;;;5034184;28;20025;-38
2022/12/27 01:05:36;;;;;;;64.68;7.03;;;;;;;;;;5034732;28;20090;-38
2022/12/27 01:08:03;;;;;;;56.78;6.32;;;;;;;;;;5034551;28;20082;-38
2022/12/27 01:10:31;;;;;;;45.72;6.20;;;;;;;;;;5034613;28;20494;-38
2022/12/27 01:12:58;;;;;;;43.03;4.95;;;;;;;;;;5034733;28;20037;-38
2022/12/27 01:15:25;;;;;;;43.20;5.07;;;;;;;;;;5034239;28;20060;-38
2022/12/27 01:17:52;;;;;;;40.15;4.97;;;;;;;;;;5034401;28;20108;-38
2022/12/27 01:20:19;;;;;;;37.28;4.80;;;;;;;;;;5034360;28;20419;-38
2022/12/27 01:22:46;;;;;;;47.97;5.57;;;;;;;;;;5032044;28;20029;-38
2022/12/27 01:25:13;;;;;;;43.70;5.65;;;;;;;;;;5031690;28;20034;-39
2022/12/27 01:27:40;;;;;;;39.67;4.82;;;;;;;;;;5032089;28;20415;-39
2022/12/27 01:30:07;;;;;;;44.85;6.55;;;;;;;;;;5029642;28;20025;-39
2022/12/27 01:32:35;;;;;;;44.08;5.72;;;;;;;;;;5033386;28;20068;-39
2022/12/27 01:35:02;;;;;;;37.35;4.75;;;;;;;;;;5034066;28;20446;-38
2022/12/27 01:37:29;;;;;;;51.45;6.10;;;;;;;;;;5034355;28;20108;-38
2022/12/27 01:39:56;;;;;;;52.53;6.63;;;;;;;;;;5040141;28;20125;-38
2022/12/27 01:45:17;;;;;;;36.20;4.80;;;;;;;;;;5049853;28;20040;-38
2022/12/27 01:47:50;;;;;;;36.80;5.10;;;;;;;;;;5033077;28;20065;-38
2022/12/27 01:50:18;;;;;;;38.55;5.30;;;;;;;;;;5038014;28;20123;-38
2022/12/27 01:53:03;;;;;;;36.22;4.80;;;;;;;;;;5044985;28;20033;-38
2022/12/27 01:55:32;;;;;;;35.22;4.50;;;;;;;;;;5027050;28;20479;-38
2022/12/27 01:58:22;;;;;;;50.42;5.18;;;;;;;;;;5046995;28;20033;-39
2022/12/27 02:00:49;;;;;;;49.85;5.40;;;;;;;;;;5040791;28;20045;-38
2022/12/27 02:03:22;;;;;;;51.85;4.07;;;;;;;;;;5048540;28;20036;-38
2022/12/27 02:05:49;;;;;;;18.92;2.10;;;;;;;;;;5043598;28;20091;-39
2022/12/27 02:08:16;;;;;;;31.90;3.38;;;;;;;;;;5037794;28;20041;-38
2022/12/27 02:10:43;;;;;;;16.05;2.60;;;;;;;;;;5031819;28;20021;-38
2022/12/27 02:13:11;;;;;;;19.90;2.60;;;;;;;;;;5031232;28;20112;-39
2022/12/27 02:15:38;;;;;;;27.77;2.40;;;;;;;;;;5027403;28;20057;-41
2022/12/27 02:18:05;;;;;;;29.67;2.97;;;;;;;;;;5029738;28;20029;-39
2022/12/27 02:20:38;;;;;;;28.70;3.33;;;;;;;;;;5028129;28;20029;-39
2022/12/27 02:26:12;;;;;;;45.22;4.13;;;;;;;;;;5032048;28;20052;-38
2022/12/27 02:28:48;;;;;;;30.83;3.40;;;;;;;;;;5032228;28;20116;-39
2022/12/27 02:31:18;;;;;;;25.77;3.65;;;;;;;;;;5030429;28;20116;-39
2022/12/27 02:33:47;;;;;;;23.85;3.38;;;;;;;;;;5013017;28;20033;-39
2022/12/27 02:36:34;;;;;;;24.17;3.17;;;;;;;;;;5028172;28;20495;-38
2022/12/27 02:39:02;;;;;;;38.35;2.90;;;;;;;;;;5030933;28;20041;-38
2022/12/27 02:55:30;;;;;;;35.05;3.17;;;;;;;;;;5030714;28;20080;-38
2022/12/27 02:58:12;;;;;;;12.63;1.83;;;;;;;;;;5031049;28;20173;-38
2022/12/27 03:03:50;;;;;;;40.22;3.78;;;;;;;;;;5029185;28;20129;-39
2022/12/27 03:06:38;;;;;;;16.33;2.65;;;;;;;;;;5029895;28;20033;-39
2022/12/27 03:18:13;;;;;;;30.38;3.10;;;;;;;;;;5031297;28;20099;-38
2022/12/27 03:26:11;;;;;;;25.98;2.97;;;;;;;;;;5031354;28;20043;-37
2022/12/27 03:39:54;;;;;;;34.10;3.17;;;;;;;;;;5028823;28;20053;-38
2022/12/27 03:45:09;;;;;;;19.75;1.98;;;;;;;;;;5032493;28;20087;-37
2022/12/27 03:47:36;;;;;;;16.83;1.40;;;;;;;;;;5032095;28;20510;-37
2022/12/27 03:50:06;;;;;;;7.85;0.95;;;;;;;;;;5031857;28;20118;-38
2022/12/27 03:52:43;;;;;;;11.20;1.42;;;;;;;;;;5031998;28;20018;-38
2022/12/27 03:55:11;;;;;;;14.30;1.73;;;;;;;;;;5032067;28;20151;-37
2022/12/27 03:57:38;;;;;;;15.40;1.65;;;;;;;;;;5032033;28;20025;-37
2022/12/27 04:00:05;;;;;;;12.73;1.30;;;;;;;;;;5031419;28;20030;-37
2022/12/27 04:02:32;;;;;;;16.20;1.60;;;;;;;;;;5032000;28;20483;-37
2022/12/27 04:04:59;;;;;;;23.08;2.17;;;;;;;;;;5031904;28;20749;-37
2022/12/27 04:07:26;;;;;;;25.25;2.58;;;;;;;;;;5031926;28;20116;-37
2022/12/27 04:34:45;;;;;;;8.60;1.13;;;;;;;;;;5031761;28;20127;-37
2022/12/27 04:37:16;;;;;;;7.95;1.00;;;;;;;;;;5031741;28;20029;-37
2022/12/27 04:56:15;;;;;;;12.13;1.40;;;;;;;;;;5031752;28;20037;-37
2022/12/27 05:02:01;;;;;;;10.65;1.20;;;;;;;;;;5031612;28;20019;-37
2022/12/27 05:04:14;;;;;;;8.45;1.00;;;;;;;;;;5031473;28;20036;-37
2022/12/27 05:06:40;;;;;;;10.88;1.00;;;;;;;;;;5031377;28;20036;-37
2022/12/27 05:14:38;;;;;;;10.95;1.30;;;;;;;;;;5034732;28;20120;-37
2022/12/27 05:17:05;;;;;;;7.43;1.00;;;;;;;;;;5034894;28;20038;-37
2022/12/27 05:19:32;;;;;;;12.20;1.90;;;;;;;;;;5034641;28;20038;-37
2022/12/27 05:27:29;;;;;;;12.88;1.50;;;;;;;;;;5034624;28;20063;-37
2022/12/27 05:29:56;;;;;;;4.28;0.80;;;;;;;;;;5034415;28;20403;-37
2022/12/27 05:32:23;;;;;;;7.10;0.75;;;;;;;;;;5034467;28;20468;-37
2022/12/27 05:34:50;;;;;;;23.55;2.10;;;;;;;;;;5034575;28;20033;-37
2022/12/27 05:37:17;;;;;;;21.25;2.15;;;;;;;;;;5034424;28;20333;-37
2022/12/27 05:39:44;;;;;;;10.85;1.77;;;;;;;;;;5034430;28;20065;-37
2022/12/27 05:42:11;;;;;;;7.72;1.05;;;;;;;;;;5034446;28;20028;-37
2022/12/27 05:44:38;;;;;;;5.15;0.80;;;;;;;;;;5034322;28;20022;-37
2022/12/27 05:47:05;;;;;;;7.50;1.00;;;;;;;;;;5034312;28;20072;-37
2022/12/27 05:49:32;;;;;;;8.10;0.90;;;;;;;;;;5034194;28;20116;-37
2022/12/27 05:51:58;;;;;;;11.82;1.30;;;;;;;;;;5034214;28;20028;-37
2022/12/27 05:54:25;;;;;;;15.13;1.40;;;;;;;;;;5034187;28;20100;-37
2022/12/27 05:56:52;;;;;;;16.30;1.45;;;;;;;;;;5034141;28;20064;-37
2022/12/27 05:59:19;;;;;;;15.05;1.38;;;;;;;;;;5034055;28;20022;-37
2022/12/27 06:01:46;;;;;;;16.83;1.45;;;;;;;;;;5033545;28;20049;-37
2022/12/27 06:04:13;;;;;;;10.60;1.00;;;;;;;;;;5049430;28;20032;-37
2022/12/27 06:06:40;;;;;;;7.32;1.00;;;;;;;;;;5053783;28;20029;-37
2022/12/27 06:09:07;;;;;;;10.05;1.08;;;;;;;;;;5053760;28;20032;-37
2022/12/27 06:11:40;;;;;;;12.15;1.20;;;;;;;;;;5053704;28;20438;-37
2022/12/27 06:14:06;;;;;;;11.57;1.10;;;;;;;;;;5053597;28;20486;-37
2022/12/27 06:16:33;;;;;;;7.85;0.90;;;;;;;;;;5053587;28;20504;-37
2022/12/27 06:19:00;;;;;;;7.40;1.05;;;;;;;;;;5053446;28;20028;-37
2022/12/27 06:21:27;;;;;;;9.40;1.23;;;;;;;;;;5035583;28;20426;-37
2022/12/27 06:23:54;;;;;;;8.68;0.95;;;;;;;;;;5053381;28;20056;-37
2022/12/27 06:26:25;;;;;;;11.15;1.40;;;;;;;;;;5053459;28;20544;-37
2022/12/27 06:28:52;;;;;;;7.07;1.20;;;;;;;;;;5053514;28;20053;-37
2022/12/27 06:31:20;;;;;;;5.40;1.02;;;;;;;;;;5053489;28;20024;-37
2022/12/27 06:33:47;;;;;;;6.10;1.10;;;;;;;;;;5053372;28;20364;-37
2022/12/27 06:36:16;;;;;;;4.80;0.90;;;;;;;;;;5053381;28;20029;-37
2022/12/27 06:38:43;;;;;;;8.98;1.13;;;;;;;;;;5193848;23;20326;-38
2022/12/27 06:41:11;;;;;;;9.90;1.20;;;;;;;;;;5030812;28;20043;-41
2022/12/27 06:43:38;;;;;;;6.90;1.08;;;;;;;;;;5033850;28;20022;-41
2022/12/27 06:46:06;;;;;;;6.70;1.27;;;;;;;;;;5032734;28;20033;-42
2022/12/27 06:48:33;;;;;;;7.93;0.90;;;;;;;;;;5032848;28;20028;-42
2022/12/27 06:51:03;;;;;;;3.88;0.90;;;;;;;;;;5033288;28;20107;-42
2022/12/27 06:53:30;;;;;;;6.20;0.80;;;;;;;;;;5032830;28;20032;-39
2022/12/27 06:55:57;;;;;;;6.00;0.93;;;;;;;;;;5032940;28;20029;-41
2022/12/27 06:58:24;;;;;;;4.53;0.88;;;;;;;;;;5032760;28;20021;-42
2022/12/27 07:00:51;;;;;;;7.18;0.90;;;;;;;;;;5032807;28;20103;-41
2022/12/27 07:03:18;;;;;;;9.25;1.20;;;;;;;;;;5032794;28;20025;-41
2022/12/27 07:05:45;;;;;;;5.47;1.10;;;;;;;;;;5032668;28;20037;-41
2022/12/27 07:08:12;;;;;;;7.85;1.25;;;;;;;;;;5032746;28;20029;-41
2022/12/27 07:10:39;;;;;;;8.77;1.35;;;;;;;;;;5032663;28;20017;-41
2022/12/27 07:13:06;;;;;;;6.97;1.20;;;;;;;;;;5032676;28;20037;-41
2022/12/27 07:15:33;;;;;;;4.97;0.88;;;;;;;;;;5032601;28;20018;-41
2022/12/27 07:18:00;;;;;;;3.97;0.80;;;;;;;;;;5032363;28;20033;-41
2022/12/27 07:20:27;;;;;;;6.68;1.02;;;;;;;;;;5032454;28;20029;-42
2022/12/27 07:22:54;;;;;;;8.20;1.05;;;;;;;;;;5032435;28;20087;-41
2022/12/27 07:25:21;;;;;;;3.58;0.88;;;;;;;;;;5032428;28;20075;-41
2022/12/27 07:27:47;;;;;;;6.03;0.93;;;;;;;;;;5032352;28;20026;-41
2022/12/27 07:30:14;;;;;;;7.25;0.70;;;;;;;;;;5032376;28;20025;-41
2022/12/27 07:32:41;;;;;;;7.25;1.10;;;;;;;;;;5032297;28;20022;-41
2022/12/27 07:35:08;;;;;;;5.25;0.90;;;;;;;;;;5031564;28;20053;-41
2022/12/27 07:37:35;;;;;;;8.20;0.95;;;;;;;;;;5032224;28;20033;-41
2022/12/27 07:40:02;;;;;;;7.13;0.93;;;;;;;;;;5031790;28;20128;-41
2022/12/27 07:42:40;;;;;;;6.68;1.10;;;;;;;;;;5032247;28;20025;-41
2022/12/27 07:45:07;;;;;;;7.53;0.95;;;;;;;;;;5032165;28;20080;-41
2022/12/27 07:47:34;;;;;;;11.15;1.13;;;;;;;;;;5032177;28;20021;-41
2022/12/27 07:50:01;;;;;;;6.72;1.15;;;;;;;;;;5032074;28;20082;-41
2022/12/27 07:52:28;;;;;;;10.77;1.60;;;;;;;;;;5032064;28;20036;-41
2022/12/27 07:54:55;;;;;;;15.55;2.08;;;;;;;;;;5032124;28;20029;-41
2022/12/27 07:57:22;;;;;;;13.65;1.92;;;;;;;;;;5032072;28;20456;-41
2022/12/27 07:59:49;;;;;;;17.83;2.45;;;;;;;;;;5031956;28;20022;-41
2022/12/27 08:02:16;;;;;;;19.80;2.40;;;;;;;;;;5031946;28;20029;-41
2022/12/27 08:04:43;;;;;;;23.90;2.25;;;;;;;;;;5031977;28;20029;-41
2022/12/27 08:07:14;;;;;;;23.20;2.08;;;;;;;;;;5031832;28;20490;-41
2022/12/27 08:09:43;;;;;;;17.37;1.90;;;;;;;;;;5031924;28;20036;-41
2022/12/27 08:12:10;;;;;;;14.90;1.50;;;;;;;;;;5031968;28;20343;-41
2022/12/27 08:14:37;;;;;;;14.10;1.60;;;;;;;;;;5031744;28;20037;-41
2022/12/27 08:17:06;;;;;;;15.88;1.67;;;;;;;;;;5031916;28;20487;-41
2022/12/27 08:19:33;;;;;;;10.50;1.48;;;;;;;;;;5031797;28;20029;-41
2022/12/27 08:22:00;;;;;;;9.65;1.60;;;;;;;;;;5031783;28;20028;-41
2022/12/27 08:24:27;;;;;;;9.40;1.30;;;;;;;;;;5031805;28;20080;-41
2022/12/27 08:26:54;;;;;;;16.13;1.70;;;;;;;;;;5031627;28;20487;-41
2022/12/27 08:29:20;;;;;;;10.63;1.48;;;;;;;;;;5031663;28;20038;-41
2022/12/27 08:31:47;;;;;;;15.23;1.73;;;;;;;;;;5031775;28;20033;-41
2022/12/27 08:34:15;;;;;;;5.95;1.20;;;;;;;;;;5031732;28;20037;-41
2022/12/27 08:36:42;;;;;;;6.00;1.25;;;;;;;;;;5031889;28;20041;-41
2022/12/27 08:39:10;;;;;;;10.30;1.17;;;;;;;;;;5031368;28;20104;-41
2022/12/27 08:41:38;;;;;;;9.10;1.05;;;;;;;;;;5031531;28;20041;-41
2022/12/27 08:44:05;;;;;;;6.93;0.93;;;;;;;;;;5031298;28;20021;-43
2022/12/27 08:46:32;;;;;;;9.15;0.90;;;;;;;;;;5034293;28;20041;-41
2022/12/27 08:49:00;;;;;;;6.18;1.38;;;;;;;;;;5035365;28;20029;-41
2022/12/27 08:51:27;;;;;;;13.52;1.83;;;;;;;;;;5035266;28;20044;-41
2022/12/27 08:53:54;;;;;;;32.92;3.20;;;;;;;;;;5035233;28;20037;-41
2022/12/27 08:56:21;;;;;;;22.30;3.20;;;;;;;;;;5035183;28;20111;-41
2022/12/27 08:58:51;;;;;;;47.22;3.90;;;;;;;;;;5035145;28;20021;-41
2022/12/27 09:01:18;;;;;;;28.95;4.07;;;;;;;;;;5035177;28;20549;-41
2022/12/27 09:03:45;;;;;;;42.78;4.18;;;;;;;;;;5035166;28;20029;-41
2022/12/27 09:06:14;;;;;;;36.42;4.03;;;;;;;;;;5035076;28;20546;-41
2022/12/27 09:08:42;;;;;;;55.53;5.40;;;;;;;;;;5034779;28;20038;-41
2022/12/27 09:11:10;;;;;;;40.58;5.53;;;;;;;;;;5016984;28;20075;-41
2022/12/27 09:13:37;;;;;;;38.80;4.30;;;;;;;;;;5034867;28;20038;-41
2022/12/27 09:16:13;;;;;;;37.35;4.55;;;;;;;;;;5034924;28;20026;-41
2022/12/27 09:18:41;;;;;;;44.13;4.40;;;;;;;;;;5034785;28;20482;-41
2022/12/27 09:21:12;;;;;;;57.17;6.00;;;;;;;;;;5034832;28;20025;-41
2022/12/27 09:23:40;;;;;;;42.45;4.57;;;;;;;;;;5034818;28;20075;-41
2022/12/27 09:26:08;;;;;;;38.13;4.20;;;;;;;;;;5034635;28;20032;-41
2022/12/27 09:28:35;;;;;;;28.30;3.67;;;;;;;;;;5034633;28;20026;-41
2022/12/27 09:31:03;;;;;;;44.38;5.43;;;;;;;;;;5016821;28;20029;-41
2022/12/27 09:33:30;;;;;;;39.50;5.13;;;;;;;;;;5034625;28;20033;-41
2022/12/27 09:36:01;;;;;;;36.10;4.53;;;;;;;;;;5034544;28;20052;-41
2022/12/27 09:38:28;;;;;;;35.83;4.03;;;;;;;;;;5034445;28;20037;-41
2022/12/27 09:40:56;;;;;;;31.08;4.00;;;;;;;;;;5034336;28;20098;-41
2022/12/27 09:43:27;;;;;;;50.30;5.05;;;;;;;;;;5034485;28;20025;-41
2022/12/27 09:45:55;;;;;;;59.28;6.90;;;;;;;;;;5034264;28;20029;-41
2022/12/27 09:48:25;;;;;;;51.03;5.80;;;;;;;;;;5034194;28;20490;-42
2022/12/27 09:50:54;;;;;;;100.80;11.43;;;;;;;;;;5034259;28;20542;-41
2022/12/27 09:53:21;;;;;;;82.40;10.25;;;;;;;;;;5034260;28;20485;-41
2022/12/27 09:55:56;;;;;;;77.53;8.65;;;;;;;;;;5034170;28;20155;-41
2022/12/27 09:58:23;;;;;;;91.88;10.85;;;;;;;;;;5033317;28;20037;-41
2022/12/27 10:00:51;;;;;;;108.57;12.82;;;;;;;;;;5034094;28;20017;-41
2022/12/27 10:03:20;;;;;;;86.90;10.23;;;;;;;;;;5016221;28;20431;-41
2022/12/27 10:05:49;;;;;;;112.00;12.45;;;;;;;;;;5033913;28;20025;-41
2022/12/27 10:08:16;;;;;;;127.65;14.23;;;;;;;;;;5033925;28;20037;-42
2022/12/27 10:10:46;;;;;;;134.55;12.88;;;;;;;;;;5033844;28;20022;-41
2022/12/27 10:13:36;;;;;;;84.07;9.57;;;;;;;;;;5033900;28;20036;-41
2022/12/27 10:16:12;;;;;;;71.50;7.97;;;;;;;;;;5028432;28;20048;-41
2022/12/27 10:18:41;;;;;;;87.30;8.95;;;;;;;;;;5033764;28;20025;-41
2022/12/27 10:21:16;;;;;;;72.00;7.55;;;;;;;;;;5033639;28;20018;-41
2022/12/27 10:23:45;;;;;;;64.03;6.30;;;;;;;;;;5033694;28;20024;-41
2022/12/27 10:26:14;;;;;;;48.60;4.57;;;;;;;;;;5033642;28;20034;-41
2022/12/27 10:28:49;;;;;;;61.72;6.03;;;;;;;;;;5033500;28;20430;-41
2022/12/27 10:31:18;;;;;;;51.03;5.63;;;;;;;;;;5033473;28;20521;-41
2022/12/27 10:33:47;;;;;;;49.58;5.72;;;;;;;;;;5027402;28;20029;-41
2022/12/27 10:36:16;;;;;;;55.10;5.20;;;;;;;;;;5013235;28;20435;-41
2022/12/27 10:38:46;;;;;;;39.60;4.35;;;;;;;;;;5029077;28;20027;-41
2022/12/27 10:41:32;;;;;;;57.40;5.38;;;;;;;;;;5032032;28;20038;-41
2022/12/27 10:43:59;;;;;;;34.42;4.90;;;;;;;;;;5032301;28;20034;-40
2022/12/27 10:46:27;;;;;;;30.05;3.97;;;;;;;;;;5032988;28;20025;-40
2022/12/27 10:48:55;;;;;;;29.92;3.70;;;;;;;;;;5032962;28;20021;-40
2022/12/27 10:51:23;;;;;;;27.42;3.05;;;;;;;;;;5033021;28;20138;-40
2022/12/27 10:53:50;;;;;;;74.72;7.03;;;;;;;;;;5033007;28;20029;-40
2022/12/27 10:56:26;;;;;;;57.58;5.20;;;;;;;;;;5033065;28;20809;-40
2022/12/27 10:58:54;;;;;;;48.40;4.55;;;;;;;;;;5032898;28;20026;-40
2022/12/27 11:01:34;;;;;;;99.18;7.18;;;;;;;;;;5032703;28;20033;-40
2022/12/27 11:04:17;;;;;;;43.33;4.35;;;;;;;;;;5031994;28;20030;-40
2022/12/27 11:06:46;;;;;;;59.10;6.05;;;;;;;;;;5032354;28;20061;-39
2022/12/27 11:09:32;;;;;;;36.53;4.75;;;;;;;;;;5032399;28;20056;-39
2022/12/27 11:12:19;;;;;;;110.03;7.35;;;;;;;;;;5032558;28;20017;-39
2022/12/27 11:15:05;;;;;;;47.10;4.72;;;;;;;;;;5032421;28;20026;-36
2022/12/27 11:17:31;;;;;;;45.25;4.82;;;;;;;;;;5032606;28;20032;-36
2022/12/27 11:20:02;;;;;;;633.80;44.58;;;;;;;;;;5032556;28;20392;-38
2022/12/27 11:22:29;;;;;;;135.02;12.10;;;;;;;;;;5032444;28;20029;-38
2022/12/27 11:24:59;;;;;;;145.60;14.02;;;;;;;;;;5032478;28;20029;-37
2022/12/27 11:27:27;;;;;;;106.70;11.43;;;;;;;;;;5032407;28;20034;-37
2022/12/27 11:29:56;;;;;;;45.20;7.85;;;;;;;;;;5031940;28;20030;-38
2022/12/27 11:32:24;;;;;;;63.25;8.85;;;;;;;;;;5032248;28;20040;-37
2022/12/27 11:34:53;;;;;;;52.50;8.68;;;;;;;;;;5031195;28;20037;-40
2022/12/27 11:37:22;;;;;;;33.08;8.50;;;;;;;;;;5031993;28;20022;-40
2022/12/27 11:39:50;;;;;;;32.95;9.55;;;;;;;;;;5031696;28;20045;-40
2022/12/27 11:42:17;;;;;;;29.42;8.85;;;;;;;;;;5022928;28;20558;-40
2022/12/27 11:44:48;;;;;;;48.75;10.20;;;;;;;;;;5020421;28;20026;-40
2022/12/27 11:47:33;;;;;;;41.45;9.95;;;;;;;;;;5021124;28;20045;-39
2022/12/27 11:50:14;;;;;;;37.78;8.95;;;;;;;;;;5021311;28;20050;-40
2022/12/27 11:52:40;;;;;;;36.72;9.13;;;;;;;;;;5010806;28;20030;-40
2022/12/27 11:55:20;;;;;;;28.60;7.95;;;;;;;;;;5031352;28;20593;-39
2022/12/27 11:58:05;;;;;;;28.42;8.00;;;;;;;;;;5031545;28;20117;-39
2022/12/27 12:00:54;;;;;;;38.05;8.70;;;;;;;;;;5030909;28;20025;-40
2022/12/27 12:03:39;;;;;;;37.78;8.80;;;;;;;;;;5031546;28;20034;-39
2022/12/27 12:06:12;;;;;;;24.13;7.10;;;;;;;;;;5031292;28;20033;-40
2022/12/27 12:08:55;;;;;;;35.25;8.90;;;;;;;;;;5031422;28;20033;-39
2022/12/27 12:11:32;;;;;;;22.48;7.88;;;;;;;;;;5031522;28;20026;-39
2022/12/27 12:14:01;;;;;;;45.28;10.13;;;;;;;;;;5031368;28;20022;-39
2022/12/27 12:16:44;;;;;;;35.65;8.82;;;;;;;;;;5031664;28;20029;-39
2022/12/27 12:19:19;;;;;;;46.10;9.65;;;;;;;;;;5031502;28;20022;-39
2022/12/27 12:22:04;;;;;;;35.00;8.98;;;;;;;;;;5035103;28;20033;-39
2022/12/27 12:24:41;;;;;;;26.42;8.57;;;;;;;;;;5035560;28;20104;-39
2022/12/27 12:27:10;;;;;;;29.35;8.13;;;;;;;;;;5035418;28;20026;-39
2022/12/27 12:29:56;;;;;;;35.40;9.23;;;;;;;;;;5035208;28;20586;-39
2022/12/27 12:32:23;;;;;;;24.17;6.25;;;;;;;;;;5035457;28;20026;-39
2022/12/27 12:34:49;;;;;;;24.80;6.50;;;;;;;;;;5035654;28;20045;-39
2022/12/27 12:37:23;;;;;;;33.28;6.43;;;;;;;;;;5035347;28;20112;-39
2022/12/27 12:39:56;;;;;;;16.88;4.93;;;;;;;;;;5034682;28;20100;-39
2022/12/27 12:42:26;;;;;;;61.83;8.75;;;;;;;;;;5034788;28;20064;-39
2022/12/27 12:44:59;;;;;;;27.75;5.82;;;;;;;;;;5035129;28;20378;-39
2022/12/27 12:47:41;;;;;;;23.77;5.28;;;;;;;;;;5017164;28;20091;-39
2022/12/27 12:50:27;;;;;;;28.40;5.00;;;;;;;;;;5034798;28;20026;-40
2022/12/27 12:53:00;;;;;;;55.20;8.13;;;;;;;;;;5034968;28;20439;-40
2022/12/27 12:55:27;;;;;;;31.23;5.75;;;;;;;;;;5034931;28;20021;-39
2022/12/27 13:01:01;;;;;;;89.82;12.25;;;;;;;;;;5034706;28;20075;-39
2022/12/27 13:03:31;;;;;;;101.82;12.63;;;;;;;;;;5034930;28;20029;-39
2022/12/27 13:06:21;;;;;;;62.13;8.00;;;;;;;;;;5034612;28;20065;-39
2022/12/27 13:08:53;;;;;;;39.05;6.63;;;;;;;;;;4997706;28;20399;-39
2022/12/27 13:11:19;;;;;;;33.42;6.30;;;;;;;;;;5034707;28;20395;-39
2022/12/27 13:13:54;;;;;;;49.10;6.57;;;;;;;;;;5034692;28;20053;-39
2022/12/27 13:16:38;;;;;;;36.40;6.57;;;;;;;;;;5034699;28;20036;-39
2022/12/27 13:19:23;;;;;;;25.98;6.03;;;;;;;;;;5034403;28;20025;-39
2022/12/27 13:22:02;;;;;;;22.83;5.30;;;;;;;;;;5034367;28;20488;-39
2022/12/27 13:27:46;;;;;;;18.05;4.80;;;;;;;;;;5034822;28;20055;-39
2022/12/27 13:30:13;;;;;;;18.90;4.88;;;;;;;;;;5034460;28;20038;-39
2022/12/27 13:32:46;;;;;;;16.83;4.88;;;;;;;;;;5033350;28;20022;-39
2022/12/27 13:35:31;;;;;;;25.92;6.00;;;;;;;;;;5034296;28;20044;-39
2022/12/27 13:38:07;;;;;;;13.80;4.55;;;;;;;;;;5034564;28;20036;-39
2022/12/27 13:40:34;;;;;;;20.83;4.82;;;;;;;;;;5034207;28;20060;-39
2022/12/27 13:43:16;;;;;;;16.40;4.43;;;;;;;;;;5034313;28;20032;-39
2022/12/27 13:45:45;;;;;;;;;;;;;;;;;;5034669;28;20028;-39
2022/12/27 13:48:20;;;;;;;12.00;4.43;;;;;;;;;;5034301;28;19916;-39
2022/12/27 13:50:47;;;;;;;21.83;5.28;;;;;;;;;;5034342;28;20028;-39
2022/12/27 13:53:31;;;;;;;21.13;4.43;;;;;;;;;;5034349;28;20018;-39
2022/12/27 13:56:03;;;;;;;16.52;4.93;;;;;;;;;;5033885;28;20032;-39
2022/12/27 13:58:48;;;;;;;23.75;4.95;;;;;;;;;;5034019;28;20034;-39
2022/12/27 14:01:30;;;;;;;25.00;5.00;;;;;;;;;;5034354;28;20476;-39
2022/12/27 14:04:00;;;;;;;20.17;5.35;;;;;;;;;;5033856;28;20021;-39
2022/12/27 14:06:28;;;;;;;37.17;5.97;;;;;;;;;;5033761;28;20034;-39
2022/12/27 14:08:58;;;;;;;27.60;5.75;;;;;;;;;;5033825;28;20052;-39
2022/12/27 14:11:43;;;;;;;38.28;5.90;;;;;;;;;;5033941;28;20026;-39
2022/12/27 14:14:11;;;;;;;40.80;5.95;;;;;;;;;;5031037;28;20032;-40
2022/12/27 14:16:38;;;;;;;46.78;6.05;;;;;;;;;;5033295;28;20029;-39
2022/12/27 14:19:23;;;;;;;43.88;5.80;;;;;;;;;;5033399;28;20067;-39
2022/12/27 14:22:02;;;;;;;39.35;5.72;;;;;;;;;;5033414;28;20025;-39
2022/12/27 14:24:29;;;;;;;43.88;6.82;;;;;;;;;;5033341;28;20107;-39
2022/12/27 14:27:15;;;;;;;45.05;6.72;;;;;;;;;;5033322;28;20033;-39
2022/12/27 14:29:47;;;;;;;41.03;6.35;;;;;;;;;;5032564;28;20067;-39
2022/12/27 14:32:17;;;;;;;42.83;6.22;;;;;;;;;;5033251;28;20044;-39
2022/12/27 14:34:54;;;;;;;40.65;7.20;;;;;;;;;;5032778;28;20025;-39
2022/12/27 14:37:33;;;;;;;40.13;6.07;;;;;;;;;;5029351;28;20483;-39
2022/12/27 14:40:00;;;;;;;47.42;6.70;;;;;;;;;;5026346;28;20091;-39
2022/12/27 14:43:02;;;;;;;41.70;6.28;;;;;;;;;;5025915;28;20459;-39
2022/12/27 14:45:32;;;;;;;36.23;6.73;;;;;;;;;;4952720;29;20027;-39
2022/12/27 14:48:14;;;;;;;41.45;7.03;;;;;;;;;;5018435;28;20299;-39
2022/12/27 14:50:56;;;;;;;37.72;5.97;;;;;;;;;;5032584;28;20025;-39
2022/12/27 14:53:37;;;;;;;51.97;7.05;;;;;;;;;;5032706;28;20543;-39
2022/12/27 14:56:27;;;;;;;43.83;6.25;;;;;;;;;;5032864;28;20080;-39
2022/12/27 14:59:12;;;;;;;40.53;6.60;;;;;;;;;;5022681;28;20040;-39
2022/12/27 15:01:45;;;;;;;36.83;6.50;;;;;;;;;;5032430;28;20032;-39
2022/12/27 15:04:31;;;;;;;42.58;6.78;;;;;;;;;;5019165;28;20025;-39
2022/12/27 15:07:01;;;;;;;41.35;6.28;;;;;;;;;;5032276;28;20365;-39
2022/12/27 15:09:40;;;;;;;46.28;7.57;;;;;;;;;;5032504;28;20484;-39
2022/12/27 15:12:26;;;;;;;29.65;6.15;;;;;;;;;;5032469;28;20036;-39
2022/12/27 15:15:01;;;;;;;31.60;6.43;;;;;;;;;;5032118;28;20108;-39
2022/12/27 15:17:37;;;;;;;33.78;5.68;;;;;;;;;;5032250;28;20357;-39
2022/12/27 15:20:05;;;;;;;29.15;5.82;;;;;;;;;;5032368;28;20025;-39
2022/12/27 15:22:53;;;;;;;26.35;5.47;;;;;;;;;;5020506;28;20067;-39
2022/12/27 15:25:23;;;;;;;27.48;6.00;;;;;;;;;;5032134;28;20026;-39
2022/12/27 15:27:55;;;;;;;27.60;5.15;;;;;;;;;;5031959;28;20104;-39
2022/12/27 15:30:25;;;;;;;38.88;5.85;;;;;;;;;;5032300;28;20030;-39
2022/12/27 15:32:55;;;;;;;26.08;5.15;;;;;;;;;;5032099;28;20028;-39
2022/12/27 15:35:29;;;;;;;24.52;5.72;;;;;;;;;;5031888;28;20029;-39
2022/12/27 15:38:07;;;;;;;26.83;5.45;;;;;;;;;;5031757;28;20648;-39
2022/12/27 15:40:34;;;;;;;28.95;5.63;;;;;;;;;;5031734;28;20100;-39
2022/12/27 15:43:01;;;;;;;30.60;5.88;;;;;;;;;;5031745;28;20522;-39
2022/12/27 15:45:46;;;;;;;32.35;5.13;;;;;;;;;;5031833;28;20053;-39
2022/12/27 15:48:36;;;;;;;26.42;5.47;;;;;;;;;;5031937;28;20033;-39
2022/12/27 15:51:20;;;;;;;37.85;6.90;;;;;;;;;;5031755;28;20064;-39
2022/12/27 15:53:54;;;;;;;39.28;6.50;;;;;;;;;;5027994;28;20029;-39
2022/12/27 15:56:31;;;;;;;25.77;5.75;;;;;;;;;;5031163;28;20080;-40
2022/12/27 15:59:16;;;;;;;30.52;5.78;;;;;;;;;;5031934;28;20108;-39
2022/12/27 16:01:43;;;;;;;37.63;6.57;;;;;;;;;;5031977;28;20071;-39
2022/12/27 16:04:28;;;;;;;29.38;5.72;;;;;;;;;;5031735;28;20057;-39
2022/12/27 16:06:55;;;;;;;27.77;6.43;;;;;;;;;;5031918;28;20029;-39
2022/12/27 16:09:25;;;;;;;28.90;5.97;;;;;;;;;;5031742;28;20487;-39
2022/12/27 16:12:07;;;;;;;34.35;5.95;;;;;;;;;;5017977;28;20108;-40
2022/12/27 16:14:38;;;;;;;31.10;6.18;;;;;;;;;;5031786;28;20030;-39
2022/12/27 16:17:05;;;;;;;30.92;6.00;;;;;;;;;;5031579;28;20070;-39
2022/12/27 16:19:45;;;;;;;39.17;6.28;;;;;;;;;;5031826;28;20048;-40
2022/12/27 16:22:23;;;;;;;35.95;6.32;;;;;;;;;;5031552;28;20029;-39
2022/12/27 16:24:50;;;;;;;32.92;6.55;;;;;;;;;;5031718;28;20026;-39
2022/12/27 16:27:35;;;;;;;30.73;6.35;;;;;;;;;;5031664;28;20087;-39
2022/12/27 16:30:02;;;;;;;67.35;15.50;;;;;;;;;;5031754;28;20029;-39
2022/12/27 16:32:29;;;;;;;42.20;9.25;;;;;;;;;;5013760;28;20053;-39
2022/12/27 16:35:13;;;;;;;68.07;11.90;;;;;;;;;;5031397;28;20026;-39
2022/12/27 16:37:51;;;;;;;61.72;11.15;;;;;;;;;;5031455;28;20057;-39
2022/12/27 16:40:24;;;;;;;44.85;10.48;;;;;;;;;;5031558;28;20435;-39
2022/12/27 16:42:57;;;;;;;36.90;10.05;;;;;;;;;;5031872;28;20022;-39
2022/12/27 16:45:29;;;;;;;49.30;11.90;;;;;;;;;;5031593;28;20112;-39
2022/12/27 16:48:07;;;;;;;50.70;10.90;;;;;;;;;;5031796;28;20041;-40